TimeIST,TemperatureF,Dew PointF,Humidity,Sea Level PressureIn,VisibilityMPH,Wind Direction,Wind SpeedMPH,Gust SpeedMPH,PrecipitationIn,Events,Conditions,WindDirDegrees,DateUTC
12:00 AM,35.6,35.6,100,30.12,6.2,WNW,6.9,-,N/A,,Partly Cloudy,290,2012-09-21 23:00:00
12:30 AM,35.6,33.8,93,30.12,6.2,WNW,6.9,-,N/A,,Partly Cloudy,300,2012-09-21 23:30:00
1:00 AM,34,34,98,30.16,19,NW,6.7,,,,Scattered Clouds,310,2012-09-22 00:00:00
1:00 AM,35.6,33.8,93,30.12,6.2,NW,6.9,-,N/A,,Partly Cloudy,310,2012-09-22 00:00:00
1:30 AM,35.6,33.8,93,30.12,6.2,NW,8.1,-,N/A,,Partly Cloudy,320,2012-09-22 00:30:00
2:00 AM,35.6,35.6,100,30.12,6.2,NNW,5.8,-,N/A,,Partly Cloudy,330,2012-09-22 01:00:00
2:30 AM,35.6,33.8,93,30.12,6.2,NNW,5.8,-,N/A,,Partly Cloudy,340,2012-09-22 01:30:00
3:00 AM,35.6,33.8,93,30.12,6.2,NW,5.8,-,N/A,,Partly Cloudy,320,2012-09-22 02:00:00
3:30 AM,35.6,33.8,93,30.12,6.2,North,5.8,-,N/A,,Partly Cloudy,350,2012-09-22 02:30:00
4:00 AM,33.8,33.8,100,30.12,6.2,North,4.6,-,N/A,,Partly Cloudy,10,2012-09-22 03:00:00
4:30 AM,33.8,33.8,100,30.12,6.2,North,4.6,-,N/A,,Partly Cloudy,350,2012-09-22 03:30:00
5:00 AM,33.8,33.8,100,30.09,6.2,North,4.6,-,N/A,,Partly Cloudy,10,2012-09-22 04:00:00
5:30 AM,33.8,33.8,100,30.12,6.2,WNW,4.6,-,N/A,,Partly Cloudy,290,2012-09-22 04:30:00
6:00 AM,33.8,33.8,100,30.12,6.2,West,8.1,-,N/A,,Partly Cloudy,270,2012-09-22 05:00:00
6:30 AM,33.8,33.8,100,30.12,6.2,West,6.9,-,N/A,,Partly Cloudy,280,2012-09-22 05:30:00
7:00 AM,35,35,98,30.17,47,WNW,4.5,,,,Scattered Clouds,290,2012-09-22 06:00:00
7:00 AM,35.6,33.8,93,30.12,6.2,WNW,4.6,-,N/A,,Scattered Clouds,290,2012-09-22 06:00:00
7:30 AM,37.4,37.4,100,30.15,6.2,West,5.8,-,N/A,,Scattered Clouds,280,2012-09-22 06:30:00
8:00 AM,37.4,37.4,100,30.15,6.2,West,6.9,-,N/A,,Mostly Cloudy,270,2012-09-22 07:00:00
8:30 AM,37.4,37.4,100,30.15,6.2,WNW,3.5,-,N/A,,Mostly Cloudy,300,2012-09-22 07:30:00
9:00 AM,41.0,41.0,100,30.15,6.2,Variable,3.5,-,N/A,,Mostly Cloudy,0,2012-09-22 08:00:00
9:30 AM,44.6,42.8,93,30.15,6.2,Variable,3.5,-,N/A,,Mostly Cloudy,0,2012-09-22 08:30:00
10:00 AM,48.2,44.6,87,30.15,6.2,Variable,2.3,-,N/A,,Mostly Cloudy,0,2012-09-22 09:00:00
10:30 AM,50.0,44.6,82,30.15,6.2,Variable,2.3,-,N/A,,Mostly Cloudy,0,2012-09-22 09:30:00
11:00 AM,51.8,46.4,82,30.15,6.2,ENE,4.6,-,N/A,,Mostly Cloudy,70,2012-09-22 10:00:00
11:30 AM,53.6,44.6,72,30.12,6.2,East,5.8,-,N/A,,Mostly Cloudy,80,2012-09-22 10:30:00
12:00 PM,53.6,46.4,77,30.12,6.2,ESE,9.2,-,N/A,,Mostly Cloudy,120,2012-09-22 11:00:00
12:30 PM,55.4,44.6,67,30.12,6.2,SE,10.4,-,N/A,,Mostly Cloudy,140,2012-09-22 11:30:00
1:00 PM,55,43,53,30.14,31,SSE,11.2,,,,Partly Cloudy,160,2012-09-22 12:00:00
1:00 PM,55.4,42.8,63,30.12,6.2,South,10.4,-,N/A,,Mostly Cloudy,170,2012-09-22 12:00:00
1:30 PM,55.4,44.6,67,30.12,6.2,SSE,13.8,-,N/A,,Mostly Cloudy,150,2012-09-22 12:30:00
2:00 PM,55.4,42.8,63,30.12,6.2,SSE,13.8,-,N/A,,Scattered Clouds,160,2012-09-22 13:00:00
2:30 PM,55.4,42.8,63,30.09,6.2,SSE,16.1,-,N/A,,Scattered Clouds,150,2012-09-22 13:30:00
3:00 PM,55.4,41.0,58,30.09,6.2,SSE,16.1,-,N/A,,Scattered Clouds,150,2012-09-22 14:00:00
3:30 PM,55.4,41.0,58,30.09,6.2,SE,15.0,-,N/A,,Scattered Clouds,140,2012-09-22 14:30:00
4:00 PM,55.4,42.8,63,30.09,6.2,SE,16.1,-,N/A,,Mostly Cloudy,140,2012-09-22 15:00:00
4:30 PM,55.4,41.0,58,30.09,6.2,SSE,13.8,-,N/A,,Mostly Cloudy,150,2012-09-22 15:30:00
5:00 PM,55.4,41.0,58,30.09,6.2,SSE,12.7,-,N/A,,Scattered Clouds,150,2012-09-22 16:00:00
5:30 PM,53.6,41.0,62,30.09,6.2,SE,12.7,-,N/A,,Scattered Clouds,140,2012-09-22 16:30:00
6:00 PM,53.6,41.0,62,30.09,6.2,SE,13.8,-,N/A,,Scattered Clouds,140,2012-09-22 17:00:00
6:30 PM,51.8,41.0,67,30.09,6.2,SE,11.5,-,N/A,,Scattered Clouds,140,2012-09-22 17:30:00
7:00 PM,51,40,56,30.10,31,SE,11.2,,,,Scattered Clouds,140,2012-09-22 18:00:00
7:00 PM,51.8,41.0,67,30.06,-9999.0,SE,11.5,-,N/A,,Clear,140,2012-09-22 18:00:00
7:30 PM,50.0,39.2,66,30.06,-9999.0,SSE,8.1,-,N/A,,Clear,160,2012-09-22 18:30:00
8:00 PM,48.2,39.2,71,30.06,-9999.0,SSE,6.9,-,N/A,,Clear,150,2012-09-22 19:00:00
8:30 PM,48.2,37.4,66,30.06,-9999.0,SSE,5.8,-,N/A,,Clear,150,2012-09-22 19:30:00
9:00 PM,46.4,37.4,71,30.06,-9999.0,South,6.9,-,N/A,,Clear,170,2012-09-22 20:00:00
9:30 PM,46.4,37.4,71,30.06,6.2,SSE,5.8,-,N/A,,Scattered Clouds,150,2012-09-22 20:30:00
10:00 PM,42.8,35.6,76,30.04,6.2,SSE,5.8,-,N/A,,Scattered Clouds,160,2012-09-22 21:00:00
10:30 PM,42.8,37.4,81,30.04,6.2,SSE,4.6,-,N/A,,Scattered Clouds,160,2012-09-22 21:30:00
11:00 PM,42.8,37.4,81,30.04,6.2,South,5.8,-,N/A,,Scattered Clouds,170,2012-09-22 22:00:00
11:30 PM,39.2,35.6,87,30.04,6.2,SSE,4.6,-,N/A,,Scattered Clouds,160,2012-09-22 22:30:00